sensor_id;sensor_type;location;lat;lon;timestamp;P1;durP1;ratioP1;P2;durP2;ratioP2
45812;SDS011;31519;45.408;10.962;2023-05-10T00:00:16;3.45;;;2.95;;
45812;SDS011;31519;45.408;10.962;2023-05-10T00:03:05;5.15;;;3.08;;
45812;SDS011;31519;45.408;10.962;2023-05-10T00:05:33;12.40;;;3.65;;
45812;SDS011;31519;45.408;10.962;2023-05-10T00:08:02;5.43;;;3.58;;
45812;SDS011;31519;45.408;10.962;2023-05-10T00:10:30;6.93;;;3.72;;
45812;SDS011;31519;45.408;10.962;2023-05-10T00:12:58;4.88;;;3.75;;
45812;SDS011;31519;45.408;10.962;2023-05-10T00:15:26;5.70;;;4.10;;
45812;SDS011;31519;45.408;10.962;2023-05-10T00:17:54;4.28;;;3.60;;
45812;SDS011;31519;45.408;10.962;2023-05-10T00:20:22;4.65;;;3.97;;
45812;SDS011;31519;45.408;10.962;2023-05-10T00:22:50;5.68;;;4.22;;
45812;SDS011;31519;45.408;10.962;2023-05-10T00:25:18;5.45;;;4.55;;
45812;SDS011;31519;45.408;10.962;2023-05-10T00:27:47;8.48;;;3.75;;
45812;SDS011;31519;45.408;10.962;2023-05-10T00:30:15;7.60;;;4.20;;
45812;SDS011;31519;45.408;10.962;2023-05-10T00:32:44;4.45;;;3.30;;
45812;SDS011;31519;45.408;10.962;2023-05-10T00:35:12;5.18;;;3.25;;
45812;SDS011;31519;45.408;10.962;2023-05-10T00:37:40;5.65;;;3.30;;
45812;SDS011;31519;45.408;10.962;2023-05-10T00:40:08;4.85;;;2.90;;
45812;SDS011;31519;45.408;10.962;2023-05-10T00:42:38;7.13;;;3.17;;
45812;SDS011;31519;45.408;10.962;2023-05-10T00:45:07;8.88;;;3.25;;
45812;SDS011;31519;45.408;10.962;2023-05-10T00:47:36;2.72;;;2.15;;
45812;SDS011;31519;45.408;10.962;2023-05-10T00:50:05;6.45;;;2.63;;
45812;SDS011;31519;45.408;10.962;2023-05-10T00:52:34;4.10;;;2.42;;
45812;SDS011;31519;45.408;10.962;2023-05-10T00:55:02;6.90;;;2.00;;
45812;SDS011;31519;45.408;10.962;2023-05-10T00:57:31;2.83;;;1.88;;
45812;SDS011;31519;45.408;10.962;2023-05-10T00:59:59;3.05;;;1.88;;
45812;SDS011;31519;45.408;10.962;2023-05-10T01:02:29;4.03;;;2.45;;
45812;SDS011;31519;45.408;10.962;2023-05-10T01:04:58;3.47;;;2.05;;
45812;SDS011;31519;45.408;10.962;2023-05-10T01:07:26;2.10;;;1.80;;
45812;SDS011;31519;45.408;10.962;2023-05-10T01:09:55;1.88;;;1.70;;
45812;SDS011;31519;45.408;10.962;2023-05-10T01:12:25;4.20;;;1.92;;
45812;SDS011;31519;45.408;10.962;2023-05-10T01:14:54;4.10;;;1.83;;
45812;SDS011;31519;45.408;10.962;2023-05-10T01:17:23;2.85;;;1.73;;
45812;SDS011;31519;45.408;10.962;2023-05-10T01:19:52;4.10;;;2.00;;
45812;SDS011;31519;45.408;10.962;2023-05-10T01:37:28;5.90;;;2.08;;
45812;SDS011;31519;45.408;10.962;2023-05-10T01:42:38;2.47;;;1.40;;
45812;SDS011;31519;45.408;10.962;2023-05-10T01:45:18;4.72;;;1.80;;
45812;SDS011;31519;45.408;10.962;2023-05-10T01:47:54;3.00;;;1.60;;
45812;SDS011;31519;45.408;10.962;2023-05-10T01:50:34;1.60;;;1.50;;
45812;SDS011;31519;45.408;10.962;2023-05-10T01:53:06;1.70;;;1.60;;
45812;SDS011;31519;45.408;10.962;2023-05-10T01:55:42;3.10;;;1.73;;
45812;SDS011;31519;45.408;10.962;2023-05-10T01:58:24;6.05;;;1.63;;
45812;SDS011;31519;45.408;10.962;2023-05-10T02:00:56;4.85;;;1.85;;
45812;SDS011;31519;45.408;10.962;2023-05-10T02:03:28;3.83;;;1.60;;
45812;SDS011;31519;45.408;10.962;2023-05-10T02:05:59;1.90;;;1.70;;
45812;SDS011;31519;45.408;10.962;2023-05-10T02:08:27;2.42;;;2.20;;
45812;SDS011;31519;45.408;10.962;2023-05-10T02:10:57;2.05;;;1.80;;
45812;SDS011;31519;45.408;10.962;2023-05-10T02:13:27;1.90;;;1.70;;
45812;SDS011;31519;45.408;10.962;2023-05-10T02:15:59;4.18;;;2.10;;
45812;SDS011;31519;45.408;10.962;2023-05-10T02:18:29;4.65;;;1.70;;
45812;SDS011;31519;45.408;10.962;2023-05-10T02:21:00;7.20;;;1.50;;
45812;SDS011;31519;45.408;10.962;2023-05-10T02:23:30;6.43;;;1.80;;
45812;SDS011;31519;45.408;10.962;2023-05-10T02:25:59;1.75;;;1.48;;
45812;SDS011;31519;45.408;10.962;2023-05-10T02:28:29;3.13;;;1.90;;
45812;SDS011;31519;45.408;10.962;2023-05-10T02:30:58;5.38;;;1.73;;
45812;SDS011;31519;45.408;10.962;2023-05-10T02:33:27;1.88;;;1.60;;
45812;SDS011;31519;45.408;10.962;2023-05-10T02:35:57;2.15;;;1.90;;
45812;SDS011;31519;45.408;10.962;2023-05-10T02:38:26;5.55;;;2.00;;
45812;SDS011;31519;45.408;10.962;2023-05-10T02:40:58;4.60;;;1.92;;
45812;SDS011;31519;45.408;10.962;2023-05-10T02:43:27;7.03;;;2.20;;
45812;SDS011;31519;45.408;10.962;2023-05-10T02:45:57;2.17;;;1.88;;
45812;SDS011;31519;45.408;10.962;2023-05-10T02:48:25;2.97;;;1.83;;
45812;SDS011;31519;45.408;10.962;2023-05-10T02:50:55;5.82;;;1.60;;
45812;SDS011;31519;45.408;10.962;2023-05-10T02:53:31;2.53;;;2.00;;
45812;SDS011;31519;45.408;10.962;2023-05-10T02:56:04;7.15;;;2.50;;
45812;SDS011;31519;45.408;10.962;2023-05-10T02:58:35;3.42;;;2.17;;
45812;SDS011;31519;45.408;10.962;2023-05-10T03:01:05;2.53;;;1.88;;
45812;SDS011;31519;45.408;10.962;2023-05-10T03:03:34;6.43;;;2.40;;
45812;SDS011;31519;45.408;10.962;2023-05-10T03:06:04;2.55;;;1.95;;
45812;SDS011;31519;45.408;10.962;2023-05-10T03:08:32;1.90;;;1.80;;
45812;SDS011;31519;45.408;10.962;2023-05-10T03:14:21;2.40;;;2.20;;
45812;SDS011;31519;45.408;10.962;2023-05-10T03:17:00;3.83;;;2.47;;
45812;SDS011;31519;45.408;10.962;2023-05-10T03:19:32;3.33;;;2.20;;
45812;SDS011;31519;45.408;10.962;2023-05-10T03:22:21;2.65;;;1.98;;
45812;SDS011;31519;45.408;10.962;2023-05-10T03:25:08;5.05;;;1.95;;
45812;SDS011;31519;45.408;10.962;2023-05-10T03:27:41;6.10;;;2.20;;
45812;SDS011;31519;45.408;10.962;2023-05-10T03:30:11;11.98;;;2.20;;
45812;SDS011;31519;45.408;10.962;2023-05-10T03:32:42;2.65;;;1.83;;
45812;SDS011;31519;45.408;10.962;2023-05-10T03:35:12;3.17;;;2.22;;
45812;SDS011;31519;45.408;10.962;2023-05-10T03:37:42;4.97;;;2.33;;
45812;SDS011;31519;45.408;10.962;2023-05-10T03:40:10;2.55;;;2.13;;
45812;SDS011;31519;45.408;10.962;2023-05-10T03:42:41;2.20;;;1.80;;
45812;SDS011;31519;45.408;10.962;2023-05-10T03:45:09;4.05;;;2.40;;
45812;SDS011;31519;45.408;10.962;2023-05-10T03:47:37;4.80;;;2.00;;
45812;SDS011;31519;45.408;10.962;2023-05-10T03:50:06;3.92;;;2.00;;
45812;SDS011;31519;45.408;10.962;2023-05-10T03:52:36;3.25;;;2.40;;
45812;SDS011;31519;45.408;10.962;2023-05-10T03:55:06;6.43;;;1.95;;
45812;SDS011;31519;45.408;10.962;2023-05-10T03:57:36;3.70;;;2.55;;
45812;SDS011;31519;45.408;10.962;2023-05-10T04:00:06;3.17;;;2.30;;
45812;SDS011;31519;45.408;10.962;2023-05-10T04:02:40;1.80;;;1.70;;
45812;SDS011;31519;45.408;10.962;2023-05-10T04:05:15;6.22;;;2.38;;
45812;SDS011;31519;45.408;10.962;2023-05-10T04:07:45;5.97;;;2.20;;
45812;SDS011;31519;45.408;10.962;2023-05-10T04:10:14;6.70;;;2.35;;
45812;SDS011;31519;45.408;10.962;2023-05-10T04:12:45;5.22;;;2.35;;
45812;SDS011;31519;45.408;10.962;2023-05-10T04:15:13;2.97;;;2.03;;
45812;SDS011;31519;45.408;10.962;2023-05-10T04:17:41;4.95;;;2.15;;
45812;SDS011;31519;45.408;10.962;2023-05-10T04:20:10;5.25;;;2.10;;
45812;SDS011;31519;45.408;10.962;2023-05-10T04:22:38;5.97;;;2.22;;
45812;SDS011;31519;45.408;10.962;2023-05-10T04:25:06;4.38;;;2.15;;
45812;SDS011;31519;45.408;10.962;2023-05-10T04:27:35;3.70;;;2.13;;
45812;SDS011;31519;45.408;10.962;2023-05-10T04:30:03;7.97;;;2.50;;
45812;SDS011;31519;45.408;10.962;2023-05-10T04:32:32;4.18;;;2.45;;
45812;SDS011;31519;45.408;10.962;2023-05-10T04:34:59;2.20;;;2.00;;
45812;SDS011;31519;45.408;10.962;2023-05-10T04:37:31;3.88;;;2.00;;
45812;SDS011;31519;45.408;10.962;2023-05-10T04:39:59;3.30;;;2.05;;
45812;SDS011;31519;45.408;10.962;2023-05-10T04:42:27;6.93;;;2.00;;
45812;SDS011;31519;45.408;10.962;2023-05-10T04:44:55;2.35;;;2.15;;
45812;SDS011;31519;45.408;10.962;2023-05-10T04:47:23;2.78;;;1.80;;
45812;SDS011;31519;45.408;10.962;2023-05-10T04:49:51;5.10;;;2.13;;
45812;SDS011;31519;45.408;10.962;2023-05-10T04:52:19;2.88;;;1.70;;
45812;SDS011;31519;45.408;10.962;2023-05-10T04:54:47;4.07;;;1.85;;
45812;SDS011;31519;45.408;10.962;2023-05-10T04:57:17;3.95;;;2.05;;
45812;SDS011;31519;45.408;10.962;2023-05-10T04:59:45;4.40;;;3.08;;
45812;SDS011;31519;45.408;10.962;2023-05-10T05:02:16;2.53;;;1.75;;
45812;SDS011;31519;45.408;10.962;2023-05-10T05:04:44;5.60;;;2.22;;
45812;SDS011;31519;45.408;10.962;2023-05-10T05:07:13;5.38;;;2.13;;
45812;SDS011;31519;45.408;10.962;2023-05-10T05:09:42;3.25;;;2.15;;
45812;SDS011;31519;45.408;10.962;2023-05-10T05:12:10;3.95;;;2.40;;
45812;SDS011;31519;45.408;10.962;2023-05-10T05:14:41;3.25;;;2.38;;
45812;SDS011;31519;45.408;10.962;2023-05-10T05:17:09;3.85;;;2.13;;
45812;SDS011;31519;45.408;10.962;2023-05-10T05:19:37;5.28;;;2.17;;
45812;SDS011;31519;45.408;10.962;2023-05-10T05:22:06;2.67;;;2.00;;
45812;SDS011;31519;45.408;10.962;2023-05-10T05:24:35;3.30;;;1.83;;
45812;SDS011;31519;45.408;10.962;2023-05-10T05:27:07;2.85;;;1.95;;
45812;SDS011;31519;45.408;10.962;2023-05-10T05:29:35;2.85;;;2.08;;
45812;SDS011;31519;45.408;10.962;2023-05-10T05:32:03;3.08;;;2.28;;
45812;SDS011;31519;45.408;10.962;2023-05-10T05:34:31;3.55;;;2.33;;
45812;SDS011;31519;45.408;10.962;2023-05-10T05:36:59;5.93;;;1.90;;
45812;SDS011;31519;45.408;10.962;2023-05-10T05:39:27;8.13;;;2.20;;
45812;SDS011;31519;45.408;10.962;2023-05-10T05:41:56;25.67;;;2.80;;
45812;SDS011;31519;45.408;10.962;2023-05-10T05:44:25;1.95;;;1.77;;
45812;SDS011;31519;45.408;10.962;2023-05-10T05:46:56;2.75;;;2.10;;
45812;SDS011;31519;45.408;10.962;2023-05-10T05:49:24;7.15;;;2.10;;
45812;SDS011;31519;45.408;10.962;2023-05-10T05:51:53;3.60;;;2.15;;
45812;SDS011;31519;45.408;10.962;2023-05-10T05:54:21;2.72;;;2.25;;
45812;SDS011;31519;45.408;10.962;2023-05-10T05:56:49;2.80;;;2.00;;
45812;SDS011;31519;45.408;10.962;2023-05-10T05:59:16;5.75;;;2.58;;
45812;SDS011;31519;45.408;10.962;2023-05-10T06:01:45;3.97;;;2.47;;
45812;SDS011;31519;45.408;10.962;2023-05-10T06:04:12;2.55;;;2.17;;
45812;SDS011;31519;45.408;10.962;2023-05-10T06:06:42;3.00;;;2.22;;
45812;SDS011;31519;45.408;10.962;2023-05-10T06:09:10;3.47;;;1.90;;
45812;SDS011;31519;45.408;10.962;2023-05-10T06:11:39;4.57;;;1.98;;
45812;SDS011;31519;45.408;10.962;2023-05-10T06:14:06;9.00;;;2.10;;
45812;SDS011;31519;45.408;10.962;2023-05-10T06:16:35;4.03;;;2.20;;
45812;SDS011;31519;45.408;10.962;2023-05-10T06:19:03;6.03;;;2.30;;
45812;SDS011;31519;45.408;10.962;2023-05-10T06:21:31;18.60;;;2.22;;
45812;SDS011;31519;45.408;10.962;2023-05-10T06:23:59;5.68;;;2.08;;
45812;SDS011;31519;45.408;10.962;2023-05-10T06:26:28;3.45;;;2.20;;
45812;SDS011;31519;45.408;10.962;2023-05-10T06:28:55;3.55;;;1.60;;
45812;SDS011;31519;45.408;10.962;2023-05-10T06:31:24;3.42;;;1.60;;
45812;SDS011;31519;45.408;10.962;2023-05-10T06:33:51;3.42;;;1.80;;
45812;SDS011;31519;45.408;10.962;2023-05-10T06:36:24;3.78;;;1.80;;
45812;SDS011;31519;45.408;10.962;2023-05-10T06:38:53;2.70;;;1.92;;
45812;SDS011;31519;45.408;10.962;2023-05-10T06:41:22;3.72;;;2.05;;
45812;SDS011;31519;45.408;10.962;2023-05-10T06:43:51;2.05;;;1.80;;
45812;SDS011;31519;45.408;10.962;2023-05-10T06:46:19;4.05;;;1.83;;
45812;SDS011;31519;45.408;10.962;2023-05-10T06:48:47;4.30;;;2.30;;
45812;SDS011;31519;45.408;10.962;2023-05-10T06:51:17;3.42;;;1.70;;
45812;SDS011;31519;45.408;10.962;2023-05-10T06:53:45;2.67;;;1.38;;
45812;SDS011;31519;45.408;10.962;2023-05-10T06:56:14;2.38;;;2.00;;
45812;SDS011;31519;45.408;10.962;2023-05-10T06:58:42;2.50;;;1.67;;
45812;SDS011;31519;45.408;10.962;2023-05-10T07:01:10;5.57;;;1.83;;
45812;SDS011;31519;45.408;10.962;2023-05-10T07:03:38;2.10;;;1.90;;
45812;SDS011;31519;45.408;10.962;2023-05-10T07:06:07;5.40;;;1.80;;
45812;SDS011;31519;45.408;10.962;2023-05-10T07:08:48;2.03;;;1.83;;
45812;SDS011;31519;45.408;10.962;2023-05-10T07:11:16;2.65;;;1.95;;
45812;SDS011;31519;45.408;10.962;2023-05-10T07:13:44;2.47;;;2.05;;
45812;SDS011;31519;45.408;10.962;2023-05-10T07:16:14;4.68;;;2.30;;
45812;SDS011;31519;45.408;10.962;2023-05-10T07:18:42;7.60;;;2.15;;
45812;SDS011;31519;45.408;10.962;2023-05-10T07:21:10;2.10;;;1.90;;
45812;SDS011;31519;45.408;10.962;2023-05-10T07:23:38;2.20;;;1.83;;
45812;SDS011;31519;45.408;10.962;2023-05-10T07:26:07;3.63;;;1.77;;
45812;SDS011;31519;45.408;10.962;2023-05-10T07:28:36;2.90;;;2.20;;
45812;SDS011;31519;45.408;10.962;2023-05-10T07:31:07;3.92;;;2.00;;
45812;SDS011;31519;45.408;10.962;2023-05-10T07:33:35;2.10;;;1.90;;
45812;SDS011;31519;45.408;10.962;2023-05-10T07:36:03;1.98;;;1.80;;
45812;SDS011;31519;45.408;10.962;2023-05-10T07:38:31;2.83;;;2.05;;
45812;SDS011;31519;45.408;10.962;2023-05-10T07:40:59;3.30;;;2.08;;
45812;SDS011;31519;45.408;10.962;2023-05-10T07:43:27;7.65;;;2.92;;
45812;SDS011;31519;45.408;10.962;2023-05-10T07:45:56;6.38;;;1.88;;
45812;SDS011;31519;45.408;10.962;2023-05-10T07:48:25;4.28;;;1.90;;
45812;SDS011;31519;45.408;10.962;2023-05-10T07:50:53;7.50;;;2.92;;
45812;SDS011;31519;45.408;10.962;2023-05-10T07:53:21;4.68;;;1.98;;
45812;SDS011;31519;45.408;10.962;2023-05-10T07:55:54;3.83;;;2.40;;
45812;SDS011;31519;45.408;10.962;2023-05-10T07:58:25;2.97;;;2.13;;
45812;SDS011;31519;45.408;10.962;2023-05-10T08:00:55;1.95;;;1.85;;
45812;SDS011;31519;45.408;10.962;2023-05-10T08:03:23;6.57;;;2.53;;
45812;SDS011;31519;45.408;10.962;2023-05-10T08:05:52;2.67;;;1.73;;
45812;SDS011;31519;45.408;10.962;2023-05-10T08:08:20;3.85;;;1.85;;
45812;SDS011;31519;45.408;10.962;2023-05-10T08:10:50;4.78;;;2.22;;
45812;SDS011;31519;45.408;10.962;2023-05-10T08:13:18;2.03;;;1.92;;
45812;SDS011;31519;45.408;10.962;2023-05-10T08:15:46;3.60;;;2.30;;
45812;SDS011;31519;45.408;10.962;2023-05-10T08:18:14;2.47;;;2.00;;
45812;SDS011;31519;45.408;10.962;2023-05-10T08:20:42;5.05;;;2.35;;
45812;SDS011;31519;45.408;10.962;2023-05-10T08:23:11;2.85;;;1.98;;
45812;SDS011;31519;45.408;10.962;2023-05-10T08:25:41;3.05;;;2.00;;
45812;SDS011;31519;45.408;10.962;2023-05-10T08:28:09;2.92;;;1.92;;
45812;SDS011;31519;45.408;10.962;2023-05-10T08:30:38;4.47;;;2.10;;
45812;SDS011;31519;45.408;10.962;2023-05-10T08:33:06;6.55;;;1.83;;
45812;SDS011;31519;45.408;10.962;2023-05-10T08:35:34;7.68;;;2.10;;
45812;SDS011;31519;45.408;10.962;2023-05-10T08:38:02;6.35;;;2.53;;
45812;SDS011;31519;45.408;10.962;2023-05-10T08:40:30;2.28;;;1.70;;
45812;SDS011;31519;45.408;10.962;2023-05-10T08:42:58;3.35;;;2.15;;
45812;SDS011;31519;45.408;10.962;2023-05-10T08:45:40;3.22;;;2.20;;
45812;SDS011;31519;45.408;10.962;2023-05-10T08:48:10;3.15;;;2.50;;
45812;SDS011;31519;45.408;10.962;2023-05-10T08:50:39;2.20;;;1.70;;
45812;SDS011;31519;45.408;10.962;2023-05-10T08:53:12;3.70;;;2.20;;
45812;SDS011;31519;45.408;10.962;2023-05-10T08:55:42;4.10;;;2.13;;
45812;SDS011;31519;45.408;10.962;2023-05-10T08:58:10;3.15;;;2.10;;
45812;SDS011;31519;45.408;10.962;2023-05-10T09:00:39;7.32;;;2.47;;
45812;SDS011;31519;45.408;10.962;2023-05-10T09:03:07;5.45;;;2.28;;
45812;SDS011;31519;45.408;10.962;2023-05-10T09:05:36;4.65;;;2.15;;
45812;SDS011;31519;45.408;10.962;2023-05-10T09:08:05;3.30;;;2.20;;
45812;SDS011;31519;45.408;10.962;2023-05-10T09:10:37;3.22;;;2.05;;
45812;SDS011;31519;45.408;10.962;2023-05-10T09:13:07;3.20;;;2.42;;
45812;SDS011;31519;45.408;10.962;2023-05-10T09:15:38;5.60;;;1.92;;
45812;SDS011;31519;45.408;10.962;2023-05-10T09:18:06;3.42;;;2.08;;
45812;SDS011;31519;45.408;10.962;2023-05-10T09:20:34;4.68;;;1.90;;
45812;SDS011;31519;45.408;10.962;2023-05-10T09:23:02;5.57;;;2.25;;
45812;SDS011;31519;45.408;10.962;2023-05-10T09:25:30;5.13;;;1.80;;
45812;SDS011;31519;45.408;10.962;2023-05-10T09:28:00;3.13;;;2.10;;
45812;SDS011;31519;45.408;10.962;2023-05-10T09:30:29;8.73;;;1.80;;
45812;SDS011;31519;45.408;10.962;2023-05-10T09:32:58;8.45;;;1.75;;
45812;SDS011;31519;45.408;10.962;2023-05-10T09:35:28;2.88;;;1.85;;
45812;SDS011;31519;45.408;10.962;2023-05-10T09:37:59;3.00;;;1.88;;
45812;SDS011;31519;45.408;10.962;2023-05-10T09:45:30;2.45;;;2.00;;
45812;SDS011;31519;45.408;10.962;2023-05-10T09:48:00;3.35;;;2.10;;
45812;SDS011;31519;45.408;10.962;2023-05-10T09:50:30;2.25;;;2.05;;
45812;SDS011;31519;45.408;10.962;2023-05-10T09:52:59;2.97;;;1.58;;
45812;SDS011;31519;45.408;10.962;2023-05-10T09:55:38;2.67;;;1.95;;
45812;SDS011;31519;45.408;10.962;2023-05-10T09:58:09;2.30;;;2.10;;
45812;SDS011;31519;45.408;10.962;2023-05-10T10:00:39;3.42;;;1.92;;
45812;SDS011;31519;45.408;10.962;2023-05-10T10:03:15;2.15;;;1.80;;
45812;SDS011;31519;45.408;10.962;2023-05-10T10:05:48;2.33;;;1.77;;
45812;SDS011;31519;45.408;10.962;2023-05-10T10:08:17;1.90;;;1.65;;
45812;SDS011;31519;45.408;10.962;2023-05-10T10:10:45;1.95;;;1.85;;
45812;SDS011;31519;45.408;10.962;2023-05-10T10:13:15;4.53;;;1.92;;
45812;SDS011;31519;45.408;10.962;2023-05-10T10:15:44;2.15;;;1.92;;
45812;SDS011;31519;45.408;10.962;2023-05-10T10:18:13;2.65;;;2.35;;
45812;SDS011;31519;45.408;10.962;2023-05-10T10:20:44;3.05;;;1.90;;
45812;SDS011;31519;45.408;10.962;2023-05-10T10:23:13;2.13;;;1.73;;
45812;SDS011;31519;45.408;10.962;2023-05-10T10:25:44;1.70;;;1.60;;
45812;SDS011;31519;45.408;10.962;2023-05-10T10:28:21;3.80;;;1.55;;
45812;SDS011;31519;45.408;10.962;2023-05-10T10:31:12;6.15;;;1.92;;
45812;SDS011;31519;45.408;10.962;2023-05-10T10:36:56;1.60;;;1.50;;
45812;SDS011;31519;45.408;10.962;2023-05-10T10:39:25;4.70;;;1.70;;
45812;SDS011;31519;45.408;10.962;2023-05-10T10:41:54;2.80;;;2.38;;
45812;SDS011;31519;45.408;10.962;2023-05-10T10:47:03;3.30;;;2.13;;
45812;SDS011;31519;45.408;10.962;2023-05-10T10:49:50;2.17;;;1.73;;
45812;SDS011;31519;45.408;10.962;2023-05-10T10:54:59;2.58;;;1.85;;
45812;SDS011;31519;45.408;10.962;2023-05-10T10:57:43;4.45;;;2.33;;
45812;SDS011;31519;45.408;10.962;2023-05-10T11:00:22;4.30;;;3.00;;
45812;SDS011;31519;45.408;10.962;2023-05-10T11:03:09;5.30;;;2.10;;
45812;SDS011;31519;45.408;10.962;2023-05-10T11:05:46;2.30;;;2.08;;
45812;SDS011;31519;45.408;10.962;2023-05-10T11:08:21;4.82;;;2.30;;
45812;SDS011;31519;45.408;10.962;2023-05-10T11:13:37;9.23;;;2.20;;
45812;SDS011;31519;45.408;10.962;2023-05-10T11:16:22;2.08;;;1.65;;
45812;SDS011;31519;45.408;10.962;2023-05-10T11:19:01;3.70;;;2.20;;
45812;SDS011;31519;45.408;10.962;2023-05-10T11:21:32;5.30;;;1.92;;
45812;SDS011;31519;45.408;10.962;2023-05-10T11:24:02;5.13;;;2.42;;
45812;SDS011;31519;45.408;10.962;2023-05-10T11:26:40;3.78;;;2.25;;
45812;SDS011;31519;45.408;10.962;2023-05-10T11:29:08;4.50;;;1.80;;
45812;SDS011;31519;45.408;10.962;2023-05-10T11:31:41;6.43;;;2.28;;
45812;SDS011;31519;45.408;10.962;2023-05-10T11:34:26;3.42;;;2.10;;
45812;SDS011;31519;45.408;10.962;2023-05-10T11:39:26;5.68;;;2.17;;
45812;SDS011;31519;45.408;10.962;2023-05-10T11:41:57;3.95;;;2.28;;
45812;SDS011;31519;45.408;10.962;2023-05-10T11:44:30;3.40;;;2.38;;
45812;SDS011;31519;45.408;10.962;2023-05-10T11:47:00;3.80;;;3.15;;
45812;SDS011;31519;45.408;10.962;2023-05-10T11:49:28;4.47;;;2.72;;
45812;SDS011;31519;45.408;10.962;2023-05-10T11:52:05;4.50;;;2.42;;
45812;SDS011;31519;45.408;10.962;2023-05-10T11:54:34;3.28;;;2.70;;
45812;SDS011;31519;45.408;10.962;2023-05-10T11:57:03;3.58;;;2.35;;
45812;SDS011;31519;45.408;10.962;2023-05-10T11:59:31;5.15;;;2.42;;
45812;SDS011;31519;45.408;10.962;2023-05-10T12:01:59;3.97;;;2.40;;
45812;SDS011;31519;45.408;10.962;2023-05-10T12:04:28;2.22;;;2.03;;
45812;SDS011;31519;45.408;10.962;2023-05-10T12:06:57;2.60;;;2.40;;
45812;SDS011;31519;45.408;10.962;2023-05-10T12:09:25;10.05;;;3.00;;
45812;SDS011;31519;45.408;10.962;2023-05-10T12:12:10;3.15;;;2.05;;
45812;SDS011;31519;45.408;10.962;2023-05-10T12:17:11;5.90;;;2.25;;
45812;SDS011;31519;45.408;10.962;2023-05-10T12:19:40;3.92;;;2.40;;
45812;SDS011;31519;45.408;10.962;2023-05-10T12:22:09;9.57;;;2.55;;
45812;SDS011;31519;45.408;10.962;2023-05-10T12:24:37;7.30;;;2.50;;
45812;SDS011;31519;45.408;10.962;2023-05-10T12:27:09;4.55;;;2.17;;
45812;SDS011;31519;45.408;10.962;2023-05-10T12:29:55;4.25;;;2.70;;
45812;SDS011;31519;45.408;10.962;2023-05-10T12:32:36;7.65;;;2.38;;
45812;SDS011;31519;45.408;10.962;2023-05-10T12:35:05;2.53;;;2.33;;
45812;SDS011;31519;45.408;10.962;2023-05-10T12:37:34;3.20;;;2.83;;
45812;SDS011;31519;45.408;10.962;2023-05-10T12:40:06;2.65;;;2.45;;
45812;SDS011;31519;45.408;10.962;2023-05-10T12:42:37;3.22;;;2.60;;
45812;SDS011;31519;45.408;10.962;2023-05-10T12:45:07;4.97;;;2.67;;
45812;SDS011;31519;45.408;10.962;2023-05-10T12:47:37;3.53;;;2.67;;
45812;SDS011;31519;45.408;10.962;2023-05-10T12:50:07;4.13;;;2.40;;
45812;SDS011;31519;45.408;10.962;2023-05-10T12:52:36;1.77;;;1.48;;
45812;SDS011;31519;45.408;10.962;2023-05-10T12:55:04;6.03;;;2.45;;
45812;SDS011;31519;45.408;10.962;2023-05-10T12:57:32;2.92;;;2.13;;
45812;SDS011;31519;45.408;10.962;2023-05-10T13:00:00;4.20;;;2.72;;
45812;SDS011;31519;45.408;10.962;2023-05-10T13:02:29;2.58;;;2.38;;
45812;SDS011;31519;45.408;10.962;2023-05-10T13:04:57;2.65;;;2.30;;
45812;SDS011;31519;45.408;10.962;2023-05-10T13:07:26;3.05;;;2.65;;
45812;SDS011;31519;45.408;10.962;2023-05-10T13:09:54;5.40;;;2.33;;
45812;SDS011;31519;45.408;10.962;2023-05-10T13:12:22;4.88;;;2.75;;
45812;SDS011;31519;45.408;10.962;2023-05-10T13:14:50;2.83;;;2.50;;
45812;SDS011;31519;45.408;10.962;2023-05-10T13:17:18;9.70;;;2.70;;
45812;SDS011;31519;45.408;10.962;2023-05-10T13:19:46;6.15;;;2.60;;
45812;SDS011;31519;45.408;10.962;2023-05-10T13:22:15;3.25;;;2.42;;
45812;SDS011;31519;45.408;10.962;2023-05-10T13:24:55;4.55;;;2.38;;
45812;SDS011;31519;45.408;10.962;2023-05-10T13:27:23;5.93;;;2.40;;
45812;SDS011;31519;45.408;10.962;2023-05-10T13:29:51;3.20;;;2.30;;
45812;SDS011;31519;45.408;10.962;2023-05-10T13:32:19;2.97;;;1.67;;
45812;SDS011;31519;45.408;10.962;2023-05-10T13:34:47;10.70;;;2.22;;
45812;SDS011;31519;45.408;10.962;2023-05-10T13:37:15;4.57;;;2.10;;
45812;SDS011;31519;45.408;10.962;2023-05-10T13:39:43;4.05;;;2.63;;
45812;SDS011;31519;45.408;10.962;2023-05-10T13:42:12;3.75;;;2.60;;
45812;SDS011;31519;45.408;10.962;2023-05-10T13:44:40;2.17;;;1.95;;
45812;SDS011;31519;45.408;10.962;2023-05-10T13:47:08;3.17;;;2.50;;
45812;SDS011;31519;45.408;10.962;2023-05-10T13:49:36;3.42;;;2.38;;
45812;SDS011;31519;45.408;10.962;2023-05-10T13:52:04;3.92;;;2.55;;
45812;SDS011;31519;45.408;10.962;2023-05-10T13:54:34;3.78;;;1.90;;
45812;SDS011;31519;45.408;10.962;2023-05-10T13:57:03;7.03;;;2.13;;
45812;SDS011;31519;45.408;10.962;2023-05-10T13:59:32;3.75;;;2.33;;
45812;SDS011;31519;45.408;10.962;2023-05-10T14:02:00;2.88;;;2.33;;
45812;SDS011;31519;45.408;10.962;2023-05-10T14:04:31;2.40;;;2.03;;
45812;SDS011;31519;45.408;10.962;2023-05-10T14:06:59;3.90;;;2.20;;
45812;SDS011;31519;45.408;10.962;2023-05-10T14:09:27;3.58;;;2.25;;
45812;SDS011;31519;45.408;10.962;2023-05-10T14:11:56;2.97;;;2.67;;
45812;SDS011;31519;45.408;10.962;2023-05-10T14:14:23;3.72;;;2.30;;
45812;SDS011;31519;45.408;10.962;2023-05-10T14:16:53;2.20;;;2.00;;
45812;SDS011;31519;45.408;10.962;2023-05-10T14:19:21;11.65;;;3.45;;
45812;SDS011;31519;45.408;10.962;2023-05-10T14:21:49;3.67;;;2.22;;
45812;SDS011;31519;45.408;10.962;2023-05-10T14:24:19;2.20;;;2.00;;
45812;SDS011;31519;45.408;10.962;2023-05-10T14:26:47;2.70;;;1.67;;
45812;SDS011;31519;45.408;10.962;2023-05-10T14:29:15;2.00;;;1.60;;
45812;SDS011;31519;45.408;10.962;2023-05-10T14:31:43;2.00;;;1.90;;
45812;SDS011;31519;45.408;10.962;2023-05-10T14:34:11;3.17;;;2.00;;
45812;SDS011;31519;45.408;10.962;2023-05-10T14:36:40;3.85;;;1.98;;
45812;SDS011;31519;45.408;10.962;2023-05-10T14:39:08;5.22;;;1.88;;
45812;SDS011;31519;45.408;10.962;2023-05-10T14:41:38;1.77;;;1.60;;
45812;SDS011;31519;45.408;10.962;2023-05-10T14:44:08;2.70;;;2.10;;
45812;SDS011;31519;45.408;10.962;2023-05-10T14:46:37;3.03;;;2.72;;
45812;SDS011;31519;45.408;10.962;2023-05-10T14:49:07;2.30;;;1.67;;
45812;SDS011;31519;45.408;10.962;2023-05-10T14:51:35;4.28;;;1.85;;
45812;SDS011;31519;45.408;10.962;2023-05-10T14:54:04;5.22;;;2.30;;
45812;SDS011;31519;45.408;10.962;2023-05-10T14:56:32;5.65;;;2.13;;
45812;SDS011;31519;45.408;10.962;2023-05-10T14:59:00;6.28;;;2.22;;
45812;SDS011;31519;45.408;10.962;2023-05-10T15:01:29;1.63;;;1.45;;
45812;SDS011;31519;45.408;10.962;2023-05-10T15:03:59;3.92;;;2.20;;
45812;SDS011;31519;45.408;10.962;2023-05-10T15:06:31;3.88;;;2.00;;
45812;SDS011;31519;45.408;10.962;2023-05-10T15:09:01;2.17;;;1.83;;
45812;SDS011;31519;45.408;10.962;2023-05-10T15:11:31;2.85;;;1.77;;
45812;SDS011;31519;45.408;10.962;2023-05-10T15:13:59;1.88;;;1.58;;
45812;SDS011;31519;45.408;10.962;2023-05-10T15:16:27;2.35;;;1.98;;
45812;SDS011;31519;45.408;10.962;2023-05-10T15:18:56;2.05;;;1.80;;
45812;SDS011;31519;45.408;10.962;2023-05-10T15:21:24;3.30;;;2.00;;
45812;SDS011;31519;45.408;10.962;2023-05-10T15:23:52;1.90;;;1.80;;
45812;SDS011;31519;45.408;10.962;2023-05-10T15:26:20;5.38;;;1.70;;
45812;SDS011;31519;45.408;10.962;2023-05-10T15:28:49;6.95;;;1.98;;
45812;SDS011;31519;45.408;10.962;2023-05-10T15:31:18;2.50;;;1.80;;